sensor_id;sensor_type;location;lat;lon;timestamp;temperature;humidity
2463;DHT22;1243;54.298;10.172;2022-12-18T00:01:52;-3.90;99.90
2463;DHT22;1243;54.298;10.172;2022-12-18T00:04:24;-3.80;99.90
2463;DHT22;1243;54.298;10.172;2022-12-18T00:06:50;-3.80;99.90
2463;DHT22;1243;54.298;10.172;2022-12-18T00:09:16;-3.90;99.90
2463;DHT22;1243;54.298;10.172;2022-12-18T00:11:42;-3.90;99.90
2463;DHT22;1243;54.298;10.172;2022-12-18T00:14:10;-3.90;99.90
2463;DHT22;1243;54.298;10.172;2022-12-18T00:16:36;-4.00;99.90
2463;DHT22;1243;54.298;10.172;2022-12-18T00:19:03;-4.00;99.90
2463;DHT22;1243;54.298;10.172;2022-12-18T00:21:30;-4.10;99.90
2463;DHT22;1243;54.298;10.172;2022-12-18T00:23:56;-4.10;99.90
2463;DHT22;1243;54.298;10.172;2022-12-18T00:26:25;-4.10;99.90
2463;DHT22;1243;54.298;10.172;2022-12-18T00:28:51;-4.10;99.90
2463;DHT22;1243;54.298;10.172;2022-12-18T00:31:20;-4.10;99.90
2463;DHT22;1243;54.298;10.172;2022-12-18T00:33:47;-4.00;99.90
2463;DHT22;1243;54.298;10.172;2022-12-18T00:36:22;-4.00;99.90
2463;DHT22;1243;54.298;10.172;2022-12-18T00:38:48;-4.00;99.90
2463;DHT22;1243;54.298;10.172;2022-12-18T00:41:16;-4.00;99.90
2463;DHT22;1243;54.298;10.172;2022-12-18T00:44:02;-4.00;99.90
2463;DHT22;1243;54.298;10.172;2022-12-18T00:46:28;-4.00;99.90
2463;DHT22;1243;54.298;10.172;2022-12-18T00:48:54;-4.10;99.90
2463;DHT22;1243;54.298;10.172;2022-12-18T00:51:20;-4.00;99.90
2463;DHT22;1243;54.298;10.172;2022-12-18T00:53:45;-4.10;99.90
2463;DHT22;1243;54.298;10.172;2022-12-18T00:56:11;-4.10;99.90
2463;DHT22;1243;54.298;10.172;2022-12-18T00:58:37;-4.10;99.90
2463;DHT22;1243;54.298;10.172;2022-12-18T01:01:07;-4.10;99.90
2463;DHT22;1243;54.298;10.172;2022-12-18T01:03:33;-4.20;99.90
2463;DHT22;1243;54.298;10.172;2022-12-18T01:05:58;-4.20;99.90
2463;DHT22;1243;54.298;10.172;2022-12-18T01:08:24;-4.20;99.90
2463;DHT22;1243;54.298;10.172;2022-12-18T01:10:50;-4.20;99.90
2463;DHT22;1243;54.298;10.172;2022-12-18T01:13:16;-4.20;99.90
2463;DHT22;1243;54.298;10.172;2022-12-18T01:15:51;-4.30;99.90
2463;DHT22;1243;54.298;10.172;2022-12-18T01:18:17;-4.20;99.90
2463;DHT22;1243;54.298;10.172;2022-12-18T01:20:43;-4.30;99.90
2463;DHT22;1243;54.298;10.172;2022-12-18T01:23:09;-4.20;99.90
2463;DHT22;1243;54.298;10.172;2022-12-18T01:25:38;-4.30;99.90
2463;DHT22;1243;54.298;10.172;2022-12-18T01:28:05;-4.30;99.90
2463;DHT22;1243;54.298;10.172;2022-12-18T01:30:31;-4.30;99.90
2463;DHT22;1243;54.298;10.172;2022-12-18T01:32:57;-4.30;99.90
2463;DHT22;1243;54.298;10.172;2022-12-18T01:35:23;-4.30;99.90
2463;DHT22;1243;54.298;10.172;2022-12-18T01:37:48;-4.30;99.90
2463;DHT22;1243;54.298;10.172;2022-12-18T01:40:14;-4.30;99.90
2463;DHT22;1243;54.298;10.172;2022-12-18T01:42:40;-4.30;99.90
2463;DHT22;1243;54.298;10.172;2022-12-18T01:45:27;-4.40;99.90
2463;DHT22;1243;54.298;10.172;2022-12-18T01:47:55;-4.40;99.90
2463;DHT22;1243;54.298;10.172;2022-12-18T01:50:25;-4.40;99.90
2463;DHT22;1243;54.298;10.172;2022-12-18T01:53:02;-4.40;99.90
2463;DHT22;1243;54.298;10.172;2022-12-18T01:55:36;-4.40;99.90
2463;DHT22;1243;54.298;10.172;2022-12-18T01:58:03;-4.30;99.90
2463;DHT22;1243;54.298;10.172;2022-12-18T02:00:29;-4.30;99.90
2463;DHT22;1243;54.298;10.172;2022-12-18T02:02:56;-4.30;99.90
2463;DHT22;1243;54.298;10.172;2022-12-18T02:05:50;-4.30;99.90
2463;DHT22;1243;54.298;10.172;2022-12-18T02:08:21;-4.40;99.90
2463;DHT22;1243;54.298;10.172;2022-12-18T02:13:41;-4.40;99.90
2463;DHT22;1243;54.298;10.172;2022-12-18T02:16:48;-4.30;99.90
2463;DHT22;1243;54.298;10.172;2022-12-18T02:27:45;-4.30;99.90
2463;DHT22;1243;54.298;10.172;2022-12-18T02:30:13;-4.30;99.90
2463;DHT22;1243;54.298;10.172;2022-12-18T02:32:45;-4.20;99.90
2463;DHT22;1243;54.298;10.172;2022-12-18T02:35:17;-4.30;99.90
2463;DHT22;1243;54.298;10.172;2022-12-18T02:37:47;-4.30;99.90
2463;DHT22;1243;54.298;10.172;2022-12-18T02:40:14;-4.30;99.90
2463;DHT22;1243;54.298;10.172;2022-12-18T02:42:41;-4.30;99.90
2463;DHT22;1243;54.298;10.172;2022-12-18T02:45:07;-4.30;99.90
2463;DHT22;1243;54.298;10.172;2022-12-18T02:47:38;-4.40;99.90
2463;DHT22;1243;54.298;10.172;2022-12-18T02:58:59;-4.40;99.90
2463;DHT22;1243;54.298;10.172;2022-12-18T03:06:57;-4.30;99.90
2463;DHT22;1243;54.298;10.172;2022-12-18T03:09:36;-4.30;99.90
2463;DHT22;1243;54.298;10.172;2022-12-18T03:12:34;-4.30;99.90
2463;DHT22;1243;54.298;10.172;2022-12-18T03:17:31;-4.30;99.90
2463;DHT22;1243;54.298;10.172;2022-12-18T03:20:05;-4.30;99.90
2463;DHT22;1243;54.298;10.172;2022-12-18T03:22:33;-4.30;99.90
2463;DHT22;1243;54.298;10.172;2022-12-18T03:25:05;-4.30;99.90
2463;DHT22;1243;54.298;10.172;2022-12-18T03:27:32;-4.30;99.90
2463;DHT22;1243;54.298;10.172;2022-12-18T03:30:05;-4.30;99.90
2463;DHT22;1243;54.298;10.172;2022-12-18T03:32:42;-4.30;99.90
2463;DHT22;1243;54.298;10.172;2022-12-18T03:35:12;-4.30;99.90
2463;DHT22;1243;54.298;10.172;2022-12-18T03:37:43;-4.30;99.90
2463;DHT22;1243;54.298;10.172;2022-12-18T03:40:09;-4.40;99.90
2463;DHT22;1243;54.298;10.172;2022-12-18T03:43:29;-4.30;99.90
2463;DHT22;1243;54.298;10.172;2022-12-18T03:46:03;-4.30;99.90
2463;DHT22;1243;54.298;10.172;2022-12-18T03:48:37;-4.20;99.90
2463;DHT22;1243;54.298;10.172;2022-12-18T03:51:17;-4.30;99.90
2463;DHT22;1243;54.298;10.172;2022-12-18T03:53:59;-4.40;99.90
2463;DHT22;1243;54.298;10.172;2022-12-18T03:56:29;-4.40;99.90
2463;DHT22;1243;54.298;10.172;2022-12-18T03:58:57;-4.40;99.90
2463;DHT22;1243;54.298;10.172;2022-12-18T04:01:32;-4.40;99.90
2463;DHT22;1243;54.298;10.172;2022-12-18T04:04:02;-4.40;99.90
2463;DHT22;1243;54.298;10.172;2022-12-18T04:06:30;-4.40;99.90
2463;DHT22;1243;54.298;10.172;2022-12-18T04:08:57;-4.40;99.90
2463;DHT22;1243;54.298;10.172;2022-12-18T04:11:24;-4.50;99.90
2463;DHT22;1243;54.298;10.172;2022-12-18T04:13:53;-4.50;99.90
2463;DHT22;1243;54.298;10.172;2022-12-18T04:16:20;-4.40;99.90
2463;DHT22;1243;54.298;10.172;2022-12-18T04:18:46;-4.40;99.90
2463;DHT22;1243;54.298;10.172;2022-12-18T04:21:12;-4.40;99.90
2463;DHT22;1243;54.298;10.172;2022-12-18T04:23:38;-4.40;99.90
2463;DHT22;1243;54.298;10.172;2022-12-18T04:26:04;-4.40;99.90
2463;DHT22;1243;54.298;10.172;2022-12-18T04:28:51;-4.40;99.90
2463;DHT22;1243;54.298;10.172;2022-12-18T04:31:21;-4.40;99.90
2463;DHT22;1243;54.298;10.172;2022-12-18T04:37:15;-4.40;99.90
2463;DHT22;1243;54.298;10.172;2022-12-18T04:39:41;-4.40;99.90
2463;DHT22;1243;54.298;10.172;2022-12-18T04:42:10;-4.40;99.90
2463;DHT22;1243;54.298;10.172;2022-12-18T04:44:36;-4.40;99.90
2463;DHT22;1243;54.298;10.172;2022-12-18T04:47:02;-4.40;99.90
2463;DHT22;1243;54.298;10.172;2022-12-18T04:49:28;-4.30;99.90
2463;DHT22;1243;54.298;10.172;2022-12-18T04:51:54;-4.40;99.90
2463;DHT22;1243;54.298;10.172;2022-12-18T04:54:19;-4.50;99.90
2463;DHT22;1243;54.298;10.172;2022-12-18T04:56:45;-4.40;99.90
2463;DHT22;1243;54.298;10.172;2022-12-18T04:59:11;-4.40;99.90
2463;DHT22;1243;54.298;10.172;2022-12-18T05:01:37;-4.40;99.90
2463;DHT22;1243;54.298;10.172;2022-12-18T05:04:03;-4.50;99.90
2463;DHT22;1243;54.298;10.172;2022-12-18T05:06:29;-4.50;99.90
2463;DHT22;1243;54.298;10.172;2022-12-18T05:08:55;-4.50;99.90
2463;DHT22;1243;54.298;10.172;2022-12-18T05:11:24;-4.50;99.90
2463;DHT22;1243;54.298;10.172;2022-12-18T05:13:50;-4.50;99.90
2463;DHT22;1243;54.298;10.172;2022-12-18T05:16:15;-4.50;99.90
2463;DHT22;1243;54.298;10.172;2022-12-18T05:18:42;-4.50;99.90
2463;DHT22;1243;54.298;10.172;2022-12-18T05:21:08;-4.50;99.90
2463;DHT22;1243;54.298;10.172;2022-12-18T05:23:34;-4.60;99.90
2463;DHT22;1243;54.298;10.172;2022-12-18T05:26:03;-4.60;99.90
2463;DHT22;1243;54.298;10.172;2022-12-18T05:28:30;-4.70;99.90
2463;DHT22;1243;54.298;10.172;2022-12-18T05:31:01;-4.70;99.90
2463;DHT22;1243;54.298;10.172;2022-12-18T05:33:30;-4.70;99.90
2463;DHT22;1243;54.298;10.172;2022-12-18T05:35:58;-4.70;99.90
2463;DHT22;1243;54.298;10.172;2022-12-18T05:38:27;-4.70;99.80
2463;DHT22;1243;54.298;10.172;2022-12-18T05:40:54;-4.70;99.10
2463;DHT22;1243;54.298;10.172;2022-12-18T05:43:21;-4.70;98.70
2463;DHT22;1243;54.298;10.172;2022-12-18T05:45:48;-4.70;94.70
2463;DHT22;1243;54.298;10.172;2022-12-18T05:48:15;-4.70;99.90
2463;DHT22;1243;54.298;10.172;2022-12-18T05:50:43;-4.80;95.30
2463;DHT22;1243;54.298;10.172;2022-12-18T05:53:12;-4.80;93.80
2463;DHT22;1243;54.298;10.172;2022-12-18T05:55:40;-4.90;89.30
2463;DHT22;1243;54.298;10.172;2022-12-18T05:58:07;-4.90;91.70
2463;DHT22;1243;54.298;10.172;2022-12-18T06:00:38;-4.90;90.50
2463;DHT22;1243;54.298;10.172;2022-12-18T06:03:33;-5.00;93.10
2463;DHT22;1243;54.298;10.172;2022-12-18T06:09:25;-5.00;87.50
2463;DHT22;1243;54.298;10.172;2022-12-18T06:11:52;-5.10;83.90
2463;DHT22;1243;54.298;10.172;2022-12-18T06:16:59;-5.10;84.80
2463;DHT22;1243;54.298;10.172;2022-12-18T06:19:26;-5.10;84.00
2463;DHT22;1243;54.298;10.172;2022-12-18T06:21:52;-5.10;83.90
2463;DHT22;1243;54.298;10.172;2022-12-18T06:24:18;-5.20;83.90
2463;DHT22;1243;54.298;10.172;2022-12-18T06:26:47;-5.20;83.90
2463;DHT22;1243;54.298;10.172;2022-12-18T06:29:13;-5.20;83.90
2463;DHT22;1243;54.298;10.172;2022-12-18T06:31:42;-5.20;83.90
2463;DHT22;1243;54.298;10.172;2022-12-18T06:34:11;-5.20;83.80
2463;DHT22;1243;54.298;10.172;2022-12-18T06:36:37;-5.20;83.90
2463;DHT22;1243;54.298;10.172;2022-12-18T06:39:03;-5.20;83.90
2463;DHT22;1243;54.298;10.172;2022-12-18T06:41:29;-5.30;83.80
2463;DHT22;1243;54.298;10.172;2022-12-18T06:44:30;-5.30;83.70
2463;DHT22;1243;54.298;10.172;2022-12-18T06:47:28;-5.30;83.80
2463;DHT22;1243;54.298;10.172;2022-12-18T06:49:57;-5.30;83.80
2463;DHT22;1243;54.298;10.172;2022-12-18T06:52:23;-5.40;83.70
2463;DHT22;1243;54.298;10.172;2022-12-18T06:54:49;-5.30;83.90
2463;DHT22;1243;54.298;10.172;2022-12-18T06:57:15;-5.30;83.80
2463;DHT22;1243;54.298;10.172;2022-12-18T06:59:41;-5.40;83.70
2463;DHT22;1243;54.298;10.172;2022-12-18T07:02:13;-5.40;83.60
2463;DHT22;1243;54.298;10.172;2022-12-18T07:04:39;-5.40;83.20
2463;DHT22;1243;54.298;10.172;2022-12-18T07:07:05;-5.40;83.80
2463;DHT22;1243;54.298;10.172;2022-12-18T07:09:31;-5.50;83.50
2463;DHT22;1243;54.298;10.172;2022-12-18T07:12:00;-5.50;82.40
2463;DHT22;1243;54.298;10.172;2022-12-18T07:14:26;-5.50;82.60
2463;DHT22;1243;54.298;10.172;2022-12-18T07:16:52;-5.50;82.90
2463;DHT22;1243;54.298;10.172;2022-12-18T07:19:18;-5.50;83.60
2463;DHT22;1243;54.298;10.172;2022-12-18T07:21:44;-5.50;83.00
2463;DHT22;1243;54.298;10.172;2022-12-18T07:24:09;-5.50;81.00
2463;DHT22;1243;54.298;10.172;2022-12-18T07:26:35;-5.50;68.60
2463;DHT22;1243;54.298;10.172;2022-12-18T07:29:01;-5.50;79.90
2463;DHT22;1243;54.298;10.172;2022-12-18T07:31:27;-5.50;83.30
2463;DHT22;1243;54.298;10.172;2022-12-18T07:33:59;-5.60;69.50
2463;DHT22;1243;54.298;10.172;2022-12-18T07:37:01;-5.60;79.30
2463;DHT22;1243;54.298;10.172;2022-12-18T07:39:27;-5.60;77.00
2463;DHT22;1243;54.298;10.172;2022-12-18T07:41:53;-5.60;62.20
2463;DHT22;1243;54.298;10.172;2022-12-18T07:44:37;-5.60;64.40
2463;DHT22;1243;54.298;10.172;2022-12-18T07:47:06;-5.60;74.00
2463;DHT22;1243;54.298;10.172;2022-12-18T07:49:32;-5.60;71.50
2463;DHT22;1243;54.298;10.172;2022-12-18T07:51:58;-5.60;82.20
2463;DHT22;1243;54.298;10.172;2022-12-18T07:54:25;-5.60;80.80
2463;DHT22;1243;54.298;10.172;2022-12-18T07:56:51;-5.50;76.20
2463;DHT22;1243;54.298;10.172;2022-12-18T07:59:18;-5.50;83.50
2463;DHT22;1243;54.298;10.172;2022-12-18T08:01:44;-5.50;82.60
2463;DHT22;1243;54.298;10.172;2022-12-18T08:04:10;-5.50;80.10
2463;DHT22;1243;54.298;10.172;2022-12-18T08:06:36;-5.50;77.60
2463;DHT22;1243;54.298;10.172;2022-12-18T08:09:02;-5.50;81.00
2463;DHT22;1243;54.298;10.172;2022-12-18T08:11:28;-5.50;62.60
2463;DHT22;1243;54.298;10.172;2022-12-18T08:13:55;-5.50;68.00
2463;DHT22;1243;54.298;10.172;2022-12-18T08:16:40;-5.40;76.10
2463;DHT22;1243;54.298;10.172;2022-12-18T08:19:10;-5.40;82.10
2463;DHT22;1243;54.298;10.172;2022-12-18T08:21:47;-5.40;83.00
2463;DHT22;1243;54.298;10.172;2022-12-18T08:24:13;-5.30;83.80
2463;DHT22;1243;54.298;10.172;2022-12-18T08:26:39;-5.30;83.80
2463;DHT22;1243;54.298;10.172;2022-12-18T08:29:05;-5.30;83.80
2463;DHT22;1243;54.298;10.172;2022-12-18T08:31:31;-5.20;73.40
2463;DHT22;1243;54.298;10.172;2022-12-18T08:34:24;-5.20;78.50
2463;DHT22;1243;54.298;10.172;2022-12-18T08:36:56;-5.20;83.70
2463;DHT22;1243;54.298;10.172;2022-12-18T08:39:22;-5.20;83.80
2463;DHT22;1243;54.298;10.172;2022-12-18T08:41:58;-5.10;80.20
2463;DHT22;1243;54.298;10.172;2022-12-18T08:44:43;-5.10;83.10
2463;DHT22;1243;54.298;10.172;2022-12-18T08:53:45;-5.00;79.40
2463;DHT22;1243;54.298;10.172;2022-12-18T08:56:12;-5.10;60.70
2463;DHT22;1243;54.298;10.172;2022-12-18T08:58:39;-5.20;54.10
2463;DHT22;1243;54.298;10.172;2022-12-18T09:01:07;-5.20;57.10
2463;DHT22;1243;54.298;10.172;2022-12-18T09:03:34;-5.20;49.80
2463;DHT22;1243;54.298;10.172;2022-12-18T09:06:01;-5.10;57.30
2463;DHT22;1243;54.298;10.172;2022-12-18T09:08:27;-5.20;56.10
2463;DHT22;1243;54.298;10.172;2022-12-18T09:10:53;-5.20;54.60
2463;DHT22;1243;54.298;10.172;2022-12-18T09:13:19;-5.20;61.00
2463;DHT22;1243;54.298;10.172;2022-12-18T09:15:48;-5.10;60.40
2463;DHT22;1243;54.298;10.172;2022-12-18T09:18:16;-5.10;56.00
2463;DHT22;1243;54.298;10.172;2022-12-18T09:20:43;-5.10;66.30
2463;DHT22;1243;54.298;10.172;2022-12-18T09:25:48;-5.00;56.60
2463;DHT22;1243;54.298;10.172;2022-12-18T09:28:16;-5.00;47.90
2463;DHT22;1243;54.298;10.172;2022-12-18T09:30:47;-5.00;56.20
2463;DHT22;1243;54.298;10.172;2022-12-18T09:33:14;-4.80;65.20
2463;DHT22;1243;54.298;10.172;2022-12-18T09:47:16;-4.60;47.00
2463;DHT22;1243;54.298;10.172;2022-12-18T09:49:46;-4.60;42.60
2463;DHT22;1243;54.298;10.172;2022-12-18T09:52:17;-4.60;44.10
2463;DHT22;1243;54.298;10.172;2022-12-18T09:54:53;-4.50;28.40
2463;DHT22;1243;54.298;10.172;2022-12-18T09:57:22;-4.50;28.90
2463;DHT22;1243;54.298;10.172;2022-12-18T09:59:56;-4.40;54.50
2463;DHT22;1243;54.298;10.172;2022-12-18T10:02:25;-4.30;54.60
2463;DHT22;1243;54.298;10.172;2022-12-18T10:05:28;-4.30;53.10
2463;DHT22;1243;54.298;10.172;2022-12-18T10:13:54;-4.20;49.90
2463;DHT22;1243;54.298;10.172;2022-12-18T10:27:17;-3.80;37.70
2463;DHT22;1243;54.298;10.172;2022-12-18T10:29:45;-3.70;57.00
2463;DHT22;1243;54.298;10.172;2022-12-18T10:32:18;-3.60;51.60
2463;DHT22;1243;54.298;10.172;2022-12-18T10:34:51;-3.50;49.50
2463;DHT22;1243;54.298;10.172;2022-12-18T10:37:20;-3.30;58.10
2463;DHT22;1243;54.298;10.172;2022-12-18T10:40:04;-3.20;57.50
2463;DHT22;1243;54.298;10.172;2022-12-18T10:42:31;-3.10;56.70
2463;DHT22;1243;54.298;10.172;2022-12-18T10:45:11;-3.00;42.30
2463;DHT22;1243;54.298;10.172;2022-12-18T10:47:42;-3.00;29.50
2463;DHT22;1243;54.298;10.172;2022-12-18T10:50:23;-2.90;27.80
2463;DHT22;1243;54.298;10.172;2022-12-18T10:53:01;-2.80;44.30
2463;DHT22;1243;54.298;10.172;2022-12-18T10:55:38;-2.80;37.20
2463;DHT22;1243;54.298;10.172;2022-12-18T10:58:32;-2.70;32.70
2463;DHT22;1243;54.298;10.172;2022-12-18T11:01:16;-2.70;19.50
2463;DHT22;1243;54.298;10.172;2022-12-18T11:03:46;-2.70;29.00
2463;DHT22;1243;54.298;10.172;2022-12-18T11:06:24;-2.80;20.90
2463;DHT22;1243;54.298;10.172;2022-12-18T11:09:03;-2.70;28.90
2463;DHT22;1243;54.298;10.172;2022-12-18T11:11:29;-2.70;23.90
2463;DHT22;1243;54.298;10.172;2022-12-18T11:14:01;-2.70;20.90
2463;DHT22;1243;54.298;10.172;2022-12-18T11:16:29;-2.60;14.80
2463;DHT22;1243;54.298;10.172;2022-12-18T11:21:53;-2.40;14.90
2463;DHT22;1243;54.298;10.172;2022-12-18T11:26:48;-2.40;14.70
2463;DHT22;1243;54.298;10.172;2022-12-18T11:29:22;-2.40;12.50
2463;DHT22;1243;54.298;10.172;2022-12-18T11:31:48;-2.50;10.10
2463;DHT22;1243;54.298;10.172;2022-12-18T11:34:27;-2.40;13.80
2463;DHT22;1243;54.298;10.172;2022-12-18T11:36:54;-2.40;17.70
2463;DHT22;1243;54.298;10.172;2022-12-18T11:39:40;-2.50;12.70
2463;DHT22;1243;54.298;10.172;2022-12-18T11:50:00;-2.40;14.60
2463;DHT22;1243;54.298;10.172;2022-12-18T11:52:46;-2.30;18.90
2463;DHT22;1243;54.298;10.172;2022-12-18T11:56:00;-2.20;21.80
2463;DHT22;1243;54.298;10.172;2022-12-18T12:00:53;-2.00;19.20
2463;DHT22;1243;54.298;10.172;2022-12-18T12:04:05;-2.00;17.50
2463;DHT22;1243;54.298;10.172;2022-12-18T12:17:49;-2.00;1.00
2463;DHT22;1243;54.298;10.172;2022-12-18T12:20:27;-2.00;2.90
2463;DHT22;1243;54.298;10.172;2022-12-18T12:26:09;-2.00;1.00
2463;DHT22;1243;54.298;10.172;2022-12-18T12:32:04;-2.00;1.00
2463;DHT22;1243;54.298;10.172;2022-12-18T12:34:51;-2.00;1.00
2463;DHT22;1243;54.298;10.172;2022-12-18T12:37:34;-2.00;1.00
2463;DHT22;1243;54.298;10.172;2022-12-18T12:40:03;-2.10;1.00
2463;DHT22;1243;54.298;10.172;2022-12-18T12:42:38;-2.10;1.00
2463;DHT22;1243;54.298;10.172;2022-12-18T12:45:36;-2.10;1.00
2463;DHT22;1243;54.298;10.172;2022-12-18T12:48:05;-2.10;1.00
2463;DHT22;1243;54.298;10.172;2022-12-18T12:50:33;-2.00;1.00
2463;DHT22;1243;54.298;10.172;2022-12-18T12:53:01;-2.10;1.00
2463;DHT22;1243;54.298;10.172;2022-12-18T12:55:31;-2.00;1.00
2463;DHT22;1243;54.298;10.172;2022-12-18T13:01:37;-2.00;1.00
2463;DHT22;1243;54.298;10.172;2022-12-18T13:03:41;-2.10;1.00
2463;DHT22;1243;54.298;10.172;2022-12-18T13:06:23;-2.00;1.00
2463;DHT22;1243;54.298;10.172;2022-12-18T13:08:56;-2.10;1.00
2463;DHT22;1243;54.298;10.172;2022-12-18T13:14:39;-2.00;1.00
2463;DHT22;1243;54.298;10.172;2022-12-18T13:20:11;-1.90;3.90
2463;DHT22;1243;54.298;10.172;2022-12-18T13:25:26;-1.90;1.00
2463;DHT22;1243;54.298;10.172;2022-12-18T13:28:04;-2.00;1.00
2463;DHT22;1243;54.298;10.172;2022-12-18T13:35:51;-2.10;1.00
2463;DHT22;1243;54.298;10.172;2022-12-18T13:40:54;-2.30;1.00
2463;DHT22;1243;54.298;10.172;2022-12-18T13:45:59;-2.40;1.00
2463;DHT22;1243;54.298;10.172;2022-12-18T13:48:27;-2.50;1.00
2463;DHT22;1243;54.298;10.172;2022-12-18T13:51:08;-2.50;1.00
2463;DHT22;1243;54.298;10.172;2022-12-18T13:53:43;-2.60;1.00
2463;DHT22;1243;54.298;10.172;2022-12-18T13:56:09;-2.70;1.00
2463;DHT22;1243;54.298;10.172;2022-12-18T13:58:40;-2.70;1.00
2463;DHT22;1243;54.298;10.172;2022-12-18T14:01:22;-2.70;1.00
2463;DHT22;1243;54.298;10.172;2022-12-18T14:03:48;-2.70;1.00
2463;DHT22;1243;54.298;10.172;2022-12-18T14:06:17;-2.70;1.00
2463;DHT22;1243;54.298;10.172;2022-12-18T14:08:43;-2.70;1.00
2463;DHT22;1243;54.298;10.172;2022-12-18T14:11:20;-2.80;1.00
2463;DHT22;1243;54.298;10.172;2022-12-18T14:13:48;-2.80;1.00
2463;DHT22;1243;54.298;10.172;2022-12-18T14:16:16;-2.90;1.00
2463;DHT22;1243;54.298;10.172;2022-12-18T14:18:53;-3.00;1.00
2463;DHT22;1243;54.298;10.172;2022-12-18T14:21:28;-2.90;1.00
2463;DHT22;1243;54.298;10.172;2022-12-18T14:24:17;-3.00;1.00
2463;DHT22;1243;54.298;10.172;2022-12-18T14:26:44;-3.10;1.00
2463;DHT22;1243;54.298;10.172;2022-12-18T14:29:28;-3.10;1.00
2463;DHT22;1243;54.298;10.172;2022-12-18T14:34:54;-3.20;1.00
2463;DHT22;1243;54.298;10.172;2022-12-18T14:37:25;-3.30;1.00
2463;DHT22;1243;54.298;10.172;2022-12-18T14:39:57;-3.40;1.00
2463;DHT22;1243;54.298;10.172;2022-12-18T14:42:24;-3.50;1.00
2463;DHT22;1243;54.298;10.172;2022-12-18T14:47:59;-3.60;1.00
2463;DHT22;1243;54.298;10.172;2022-12-18T14:50:25;-3.60;1.00
2463;DHT22;1243;54.298;10.172;2022-12-18T14:52:52;-3.60;1.00
2463;DHT22;1243;54.298;10.172;2022-12-18T14:55:19;-3.70;1.00
2463;DHT22;1243;54.298;10.172;2022-12-18T14:57:52;-3.60;1.00
2463;DHT22;1243;54.298;10.172;2022-12-18T15:00:21;-3.60;1.00
2463;DHT22;1243;54.298;10.172;2022-12-18T15:02:51;-3.60;1.00
2463;DHT22;1243;54.298;10.172;2022-12-18T15:05:31;-3.60;1.00
2463;DHT22;1243;54.298;10.172;2022-12-18T15:07:59;-3.60;1.00
2463;DHT22;1243;54.298;10.172;2022-12-18T15:10:27;-3.70;1.00
2463;DHT22;1243;54.298;10.172;2022-12-18T15:20:54;-3.70;1.00
2463;DHT22;1243;54.298;10.172;2022-12-18T15:23:24;-3.80;1.00
2463;DHT22;1243;54.298;10.172;2022-12-18T15:26:00;-3.90;1.00
2463;DHT22;1243;54.298;10.172;2022-12-18T15:28:38;-3.80;1.00
2463;DHT22;1243;54.298;10.172;2022-12-18T15:36:20;-3.80;1.00
2463;DHT22;1243;54.298;10.172;2022-12-18T15:38:48;-3.80;1.00
2463;DHT22;1243;54.298;10.172;2022-12-18T15:41:16;-3.90;1.00
2463;DHT22;1243;54.298;10.172;2022-12-18T15:43:42;-3.90;1.00
2463;DHT22;1243;54.298;10.172;2022-12-18T15:46:12;-3.80;1.00
2463;DHT22;1243;54.298;10.172;2022-12-18T15:48:54;-3.80;1.00
2463;DHT22;1243;54.298;10.172;2022-12-18T15:51:33;-3.80;1.00
2463;DHT22;1243;54.298;10.172;2022-12-18T15:54:02;-3.90;1.00
2463;DHT22;1243;54.298;10.172;2022-12-18T15:56:29;-3.80;1.00
2463;DHT22;1243;54.298;10.172;2022-12-18T15:59:17;-3.90;1.00
2463;DHT22;1243;54.298;10.172;2022-12-18T16:01:45;-3.80;1.00
2463;DHT22;1243;54.298;10.172;2022-12-18T16:04:12;-3.90;1.00
2463;DHT22;1243;54.298;10.172;2022-12-18T16:06:39;-3.90;1.00
2463;DHT22;1243;54.298;10.172;2022-12-18T16:09:05;-3.90;1.00
2463;DHT22;1243;54.298;10.172;2022-12-18T16:11:34;-3.90;1.00
2463;DHT22;1243;54.298;10.172;2022-12-18T16:14:22;-3.90;1.00
2463;DHT22;1243;54.298;10.172;2022-12-18T16:16:51;-3.90;1.00
2463;DHT22;1243;54.298;10.172;2022-12-18T16:19:18;-3.90;1.00
2463;DHT22;1243;54.298;10.172;2022-12-18T16:25:00;-3.90;2.40
2463;DHT22;1243;54.298;10.172;2022-12-18T16:27:28;-3.90;10.70
2463;DHT22;1243;54.298;10.172;2022-12-18T16:29:57;-3.90;10.50
2463;DHT22;1243;54.298;10.172;2022-12-18T16:32:23;-3.90;1.00
2463;DHT22;1243;54.298;10.172;2022-12-18T16:34:49;-3.90;1.00
2463;DHT22;1243;54.298;10.172;2022-12-18T16:37:15;-3.80;1.00
2463;DHT22;1243;54.298;10.172;2022-12-18T16:39:42;-3.90;1.20
2463;DHT22;1243;54.298;10.172;2022-12-18T16:42:14;-3.80;6.20
2463;DHT22;1243;54.298;10.172;2022-12-18T16:44:42;-3.80;4.00
2463;DHT22;1243;54.298;10.172;2022-12-18T16:47:08;-3.80;7.60
2463;DHT22;1243;54.298;10.172;2022-12-18T16:49:43;-3.80;9.00
2463;DHT22;1243;54.298;10.172;2022-12-18T16:52:16;-3.80;11.60
2463;DHT22;1243;54.298;10.172;2022-12-18T16:54:41;-3.70;9.50
2463;DHT22;1243;54.298;10.172;2022-12-18T16:57:08;-3.80;13.80
2463;DHT22;1243;54.298;10.172;2022-12-18T16:59:34;-3.70;7.20
2463;DHT22;1243;54.298;10.172;2022-12-18T17:02:00;-3.70;13.20
2463;DHT22;1243;54.298;10.172;2022-12-18T17:04:34;-3.70;1.40
2463;DHT22;1243;54.298;10.172;2022-12-18T17:07:00;-3.70;6.10
2463;DHT22;1243;54.298;10.172;2022-12-18T17:09:26;-3.70;5.10
2463;DHT22;1243;54.298;10.172;2022-12-18T17:11:53;-3.70;4.50
2463;DHT22;1243;54.298;10.172;2022-12-18T17:14:21;-3.70;16.70
2463;DHT22;1243;54.298;10.172;2022-12-18T17:16:47;-3.60;19.20
2463;DHT22;1243;54.298;10.172;2022-12-18T17:19:14;-3.60;15.40
2463;DHT22;1243;54.298;10.172;2022-12-18T17:21:41;-3.60;14.20
2463;DHT22;1243;54.298;10.172;2022-12-18T17:24:07;-3.60;15.70
2463;DHT22;1243;54.298;10.172;2022-12-18T17:26:33;-3.60;16.60
2463;DHT22;1243;54.298;10.172;2022-12-18T17:28:59;-3.60;11.60
2463;DHT22;1243;54.298;10.172;2022-12-18T17:31:27;-3.60;17.00
2463;DHT22;1243;54.298;10.172;2022-12-18T17:33:54;-3.60;17.70
2463;DHT22;1243;54.298;10.172;2022-12-18T17:36:21;-3.60;20.50
2463;DHT22;1243;54.298;10.172;2022-12-18T17:39:05;-3.60;21.60
2463;DHT22;1243;54.298;10.172;2022-12-18T17:41:32;-3.60;19.80
2463;DHT22;1243;54.298;10.172;2022-12-18T17:44:03;-3.50;24.90
2463;DHT22;1243;54.298;10.172;2022-12-18T17:46:31;-3.50;27.50
2463;DHT22;1243;54.298;10.172;2022-12-18T17:48:59;-3.50;26.70
2463;DHT22;1243;54.298;10.172;2022-12-18T17:51:25;-3.50;27.10
2463;DHT22;1243;54.298;10.172;2022-12-18T17:53:51;-3.50;17.60
2463;DHT22;1243;54.298;10.172;2022-12-18T17:56:19;-3.40;27.40
2463;DHT22;1243;54.298;10.172;2022-12-18T17:58:45;-3.40;23.10
2463;DHT22;1243;54.298;10.172;2022-12-18T18:01:14;-3.50;24.90
2463;DHT22;1243;54.298;10.172;2022-12-18T18:03:40;-3.50;17.80
2463;DHT22;1243;54.298;10.172;2022-12-18T18:06:07;-3.40;21.30
2463;DHT22;1243;54.298;10.172;2022-12-18T18:08:34;-3.40;23.10
2463;DHT22;1243;54.298;10.172;2022-12-18T18:11:05;-3.40;17.50
2463;DHT22;1243;54.298;10.172;2022-12-18T18:13:55;-3.30;17.90
2463;DHT22;1243;54.298;10.172;2022-12-18T18:16:35;-3.30;20.90
2463;DHT22;1243;54.298;10.172;2022-12-18T18:19:07;-3.30;36.40
2463;DHT22;1243;54.298;10.172;2022-12-18T18:21:34;-3.30;28.40
2463;DHT22;1243;54.298;10.172;2022-12-18T18:24:02;-3.20;33.70
2463;DHT22;1243;54.298;10.172;2022-12-18T18:26:32;-3.10;34.20
2463;DHT22;1243;54.298;10.172;2022-12-18T18:28:59;-3.10;32.20
2463;DHT22;1243;54.298;10.172;2022-12-18T18:31:26;-3.10;35.20
2463;DHT22;1243;54.298;10.172;2022-12-18T18:33:52;-3.10;37.10
2463;DHT22;1243;54.298;10.172;2022-12-18T18:36:18;-3.10;30.30
2463;DHT22;1243;54.298;10.172;2022-12-18T18:38:44;-3.10;28.50
2463;DHT22;1243;54.298;10.172;2022-12-18T18:41:10;-3.00;32.90
2463;DHT22;1243;54.298;10.172;2022-12-18T18:43:36;-3.00;36.10
2463;DHT22;1243;54.298;10.172;2022-12-18T18:46:03;-3.00;35.10